createdAt,value
2023-03-28T00:01:02.897Z,1.10
2023-03-28T00:03:30.126Z,1.20
2023-03-28T00:06:01.149Z,1.20
2023-03-28T00:11:25.877Z,1.20
2023-03-28T00:14:00.355Z,1.20
2023-03-28T00:16:33.644Z,1.10
2023-03-28T00:19:03.263Z,1.20
2023-03-28T00:21:43.082Z,1.30
2023-03-28T00:24:14.912Z,1.20
2023-03-28T00:26:43.715Z,1.10
2023-03-28T00:29:15.973Z,1.10
2023-03-28T00:31:42.918Z,1.10
2023-03-28T00:34:09.854Z,1.00
2023-03-28T00:36:39.965Z,0.90
2023-03-28T00:39:07.051Z,0.90
2023-03-28T00:41:41.734Z,0.90
2023-03-28T00:44:46.793Z,0.90
2023-03-28T00:47:41.029Z,0.80
2023-03-28T00:50:11.174Z,1.00
2023-03-28T00:52:47.278Z,1.00
2023-03-28T00:55:19.280Z,1.10
2023-03-28T00:57:47.904Z,1.00
2023-03-28T01:00:19.068Z,0.90
2023-03-28T01:02:53.209Z,0.90
2023-03-28T01:05:26.648Z,1.00
2023-03-28T01:08:04.627Z,1.10
2023-03-28T01:10:33.617Z,1.10
2023-03-28T01:13:02.392Z,1.00
2023-03-28T01:15:31.073Z,1.00
2023-03-28T01:18:10.783Z,1.00
2023-03-28T01:21:20.761Z,0.90
2023-03-28T01:24:12.572Z,0.90
2023-03-28T01:27:03.888Z,0.80
2023-03-28T01:30:02.545Z,0.60
2023-03-28T01:33:15.614Z,0.70
2023-03-28T01:35:45.169Z,0.70
2023-03-28T01:38:33.060Z,0.70
2023-03-28T01:41:19.694Z,0.80
2023-03-28T01:43:57.865Z,0.80
2023-03-28T01:46:49.668Z,0.70
2023-03-28T01:49:30.652Z,0.80
2023-03-28T01:51:58.739Z,0.80
2023-03-28T01:54:44.512Z,0.80
2023-03-28T01:57:32.767Z,0.90
2023-03-28T02:00:12.929Z,1.00
2023-03-28T02:02:49.544Z,1.00
2023-03-28T02:05:19.600Z,1.00
2023-03-28T02:07:49.023Z,0.90
2023-03-28T02:10:19.124Z,1.00
2023-03-28T02:12:52.846Z,0.90
2023-03-28T02:15:22.403Z,0.90
2023-03-28T02:17:54.518Z,1.00
2023-03-28T02:20:24.917Z,0.90
2023-03-28T02:22:59.454Z,0.90
2023-03-28T02:25:26.438Z,0.80
2023-03-28T02:27:57.541Z,0.80
2023-03-28T02:30:24.438Z,0.80
2023-03-28T02:32:51.794Z,0.80
2023-03-28T02:35:26.868Z,0.80
2023-03-28T02:38:08.789Z,0.80
2023-03-28T02:40:54.891Z,0.70
2023-03-28T02:43:32.508Z,0.80
2023-03-28T02:46:27.589Z,0.80
2023-03-28T02:49:16.300Z,0.70
2023-03-28T02:51:59.271Z,0.80
2023-03-28T02:54:49.276Z,0.70
2023-03-28T02:57:38.771Z,0.80
2023-03-28T03:00:12.215Z,0.80
2023-03-28T03:02:51.861Z,0.80
2023-03-28T03:05:20.838Z,0.80
2023-03-28T03:07:49.968Z,0.90
2023-03-28T03:10:17.771Z,0.80
2023-03-28T03:12:44.948Z,0.80
2023-03-28T03:15:12.355Z,0.80
2023-03-28T03:17:39.312Z,0.80
2023-03-28T03:20:07.570Z,0.90
2023-03-28T03:22:36.509Z,0.90
2023-03-28T03:25:08.422Z,0.90
2023-03-28T03:27:37.297Z,0.90
2023-03-28T03:30:05.515Z,0.90
2023-03-28T03:32:33.474Z,0.90
2023-03-28T03:35:00.634Z,0.80
2023-03-28T03:37:27.576Z,0.90
2023-03-28T03:39:54.585Z,0.80
2023-03-28T03:42:21.447Z,0.70
2023-03-28T03:44:48.287Z,0.80
2023-03-28T03:47:17.890Z,0.80
2023-03-28T03:49:44.812Z,0.80
2023-03-28T03:52:11.788Z,0.70
2023-03-28T03:54:39.687Z,0.70
2023-03-28T03:57:06.649Z,0.60
2023-03-28T03:59:33.606Z,0.50
2023-03-28T04:02:00.689Z,0.40
2023-03-28T04:04:28.366Z,0.40
2023-03-28T04:06:58.278Z,0.30
2023-03-28T04:09:28.852Z,0.30
2023-03-28T04:11:56.216Z,0.30
2023-03-28T04:14:23.314Z,0.10
2023-03-28T04:16:50.910Z,0.00
2023-03-28T04:19:18.507Z,0.00
2023-03-28T04:21:48.277Z,0.00
2023-03-28T04:24:21.212Z,0.00
2023-03-28T04:26:50.948Z,0.00
2023-03-28T04:29:17.843Z,0.00
2023-03-28T04:31:50.144Z,0.00
2023-03-28T04:34:20.158Z,0.00
2023-03-28T04:36:47.247Z,-0.20
2023-03-28T04:39:14.055Z,-0.10
2023-03-28T04:41:40.950Z,0.00
2023-03-28T04:44:07.846Z,0.00
2023-03-28T04:46:34.717Z,0.00
2023-03-28T04:49:01.565Z,0.00
2023-03-28T04:51:28.823Z,-0.10
2023-03-28T04:53:55.764Z,0.00
2023-03-28T04:56:23.537Z,0.00
2023-03-28T04:58:50.377Z,0.00
2023-03-28T05:01:17.238Z,0.00
2023-03-28T05:03:44.062Z,0.00
2023-03-28T05:06:10.932Z,0.00
2023-03-28T05:08:38.545Z,-0.10
2023-03-28T05:11:05.591Z,-0.10
2023-03-28T05:13:33.320Z,-0.10
2023-03-28T05:16:00.161Z,-0.10
2023-03-28T05:18:27.208Z,-0.10
2023-03-28T05:20:54.297Z,0.00
2023-03-28T05:23:21.143Z,-0.10
2023-03-28T05:25:52.228Z,-0.20
2023-03-28T05:28:19.532Z,-0.20
2023-03-28T05:30:47.088Z,-0.20
2023-03-28T05:33:13.968Z,-0.10
2023-03-28T05:35:40.883Z,0.00
2023-03-28T05:38:07.846Z,0.00
2023-03-28T05:40:34.656Z,0.00
2023-03-28T05:43:01.600Z,0.10
2023-03-28T05:45:28.505Z,0.10
2023-03-28T05:47:57.079Z,0.30
2023-03-28T05:50:25.208Z,0.40
2023-03-28T05:52:52.152Z,0.50
2023-03-28T05:55:18.970Z,0.60
2023-03-28T05:57:45.881Z,0.80
2023-03-28T06:00:14.026Z,0.90
2023-03-28T06:02:43.434Z,1.10
2023-03-28T06:05:12.640Z,1.20
2023-03-28T06:07:42.977Z,1.50
2023-03-28T06:10:11.646Z,2.20
2023-03-28T06:12:38.520Z,2.90
2023-03-28T06:15:06.177Z,3.70
2023-03-28T06:17:33.152Z,4.50
2023-03-28T06:20:00.343Z,4.80
2023-03-28T06:22:27.291Z,5.10
2023-03-28T06:24:54.132Z,5.20
2023-03-28T06:27:21.171Z,5.40
2023-03-28T06:29:48.046Z,5.70
2023-03-28T06:32:15.645Z,6.00
2023-03-28T06:34:42.635Z,6.70
2023-03-28T06:37:09.591Z,6.80
2023-03-28T06:39:36.642Z,7.10
2023-03-28T06:42:03.816Z,7.50
2023-03-28T06:44:31.425Z,7.70
2023-03-28T06:46:58.609Z,8.20
2023-03-28T06:49:25.494Z,8.50
2023-03-28T06:51:53.269Z,9.10
2023-03-28T06:54:20.373Z,9.40
2023-03-28T06:56:47.290Z,10.10
2023-03-28T06:59:14.197Z,10.30
2023-03-28T07:01:41.301Z,10.00
2023-03-28T07:04:08.477Z,10.40
2023-03-28T07:06:35.504Z,10.70
2023-03-28T07:09:04.689Z,11.00
2023-03-28T07:11:33.004Z,11.10
2023-03-28T07:13:59.896Z,11.10
2023-03-28T07:16:26.774Z,11.30
2023-03-28T07:18:53.639Z,11.00
2023-03-28T07:21:21.416Z,10.00
2023-03-28T07:23:48.355Z,9.30
2023-03-28T07:26:16.166Z,8.80
2023-03-28T07:28:43.083Z,8.60
2023-03-28T07:31:10.222Z,8.60
2023-03-28T07:33:38.354Z,9.30
2023-03-28T07:36:17.187Z,9.80
2023-03-28T07:38:46.602Z,10.40
2023-03-28T07:41:15.462Z,10.90
2023-03-28T07:43:42.331Z,11.40
2023-03-28T07:46:14.115Z,11.80
2023-03-28T07:48:41.842Z,11.90
2023-03-28T07:51:10.500Z,12.40
2023-03-28T07:53:37.985Z,12.60
2023-03-28T07:56:06.278Z,12.80
2023-03-28T07:58:33.117Z,12.50
2023-03-28T08:01:12.262Z,12.40
2023-03-28T08:03:39.700Z,12.20
2023-03-28T08:06:20.124Z,11.90
2023-03-28T08:08:52.097Z,11.90
2023-03-28T08:11:19.032Z,11.70
2023-03-28T08:13:45.888Z,11.80
2023-03-28T08:16:13.058Z,12.00
2023-03-28T08:18:40.051Z,12.00
2023-03-28T08:21:08.225Z,12.00
2023-03-28T08:23:35.253Z,12.00
2023-03-28T08:26:07.463Z,12.10
2023-03-28T08:28:36.071Z,12.20
2023-03-28T08:31:10.270Z,12.30
2023-03-28T08:33:37.190Z,12.00
2023-03-28T08:36:04.208Z,11.00
2023-03-28T08:38:31.598Z,10.50
2023-03-28T08:41:18.945Z,10.40
2023-03-28T08:43:45.810Z,10.90
2023-03-28T08:46:16.548Z,11.20
2023-03-28T08:48:48.687Z,11.10
2023-03-28T08:51:36.129Z,10.60
2023-03-28T08:54:25.949Z,10.30
2023-03-28T08:56:56.352Z,10.40
2023-03-28T08:59:31.738Z,10.50
2023-03-28T09:01:59.248Z,10.50
2023-03-28T09:04:35.267Z,10.30
2023-03-28T09:07:18.679Z,10.10
2023-03-28T09:10:08.661Z,9.60
2023-03-28T09:13:09.033Z,9.30
2023-03-28T09:15:56.864Z,9.40
2023-03-28T09:19:03.458Z,9.40
2023-03-28T09:21:40.615Z,9.50
2023-03-28T09:24:39.828Z,9.40
2023-03-28T09:27:20.212Z,9.40
2023-03-28T09:29:47.969Z,9.40
2023-03-28T09:32:24.245Z,9.40
2023-03-28T09:34:52.134Z,9.50
2023-03-28T09:37:24.926Z,9.50
2023-03-28T09:39:54.217Z,9.30
2023-03-28T09:42:33.799Z,9.40
2023-03-28T09:45:09.212Z,9.40
2023-03-28T09:47:36.306Z,9.30
2023-03-28T09:50:12.245Z,9.10
2023-03-28T09:52:40.580Z,9.00
2023-03-28T09:55:17.276Z,8.90
2023-03-28T09:58:11.525Z,8.90
2023-03-28T10:00:42.505Z,8.90
2023-03-28T10:03:30.077Z,9.00
2023-03-28T10:05:58.596Z,9.10
2023-03-28T10:08:40.619Z,9.20
2023-03-28T10:11:18.592Z,9.30
2023-03-28T10:13:50.873Z,9.60
2023-03-28T10:16:31.125Z,9.80
2023-03-28T10:18:58.200Z,9.90
2023-03-28T10:21:30.357Z,9.80
2023-03-28T10:24:04.356Z,9.70
2023-03-28T10:26:31.748Z,9.70
2023-03-28T10:29:04.448Z,9.70
2023-03-28T10:31:33.389Z,9.70
2023-03-28T10:34:02.859Z,9.60
2023-03-28T10:36:41.719Z,9.60
2023-03-28T10:39:20.841Z,9.50
2023-03-28T10:42:01.346Z,9.30
2023-03-28T10:44:40.732Z,9.30
2023-03-28T10:47:18.306Z,9.30
2023-03-28T10:49:48.206Z,9.30
2023-03-28T10:52:47.724Z,9.40
2023-03-28T10:55:31.571Z,9.50
2023-03-28T10:58:16.925Z,9.50
2023-03-28T11:01:00.400Z,9.60
2023-03-28T11:03:48.490Z,9.70
2023-03-28T11:06:25.579Z,9.90
2023-03-28T11:09:16.698Z,10.00
2023-03-28T11:11:44.855Z,10.10
2023-03-28T11:14:38.901Z,10.00
2023-03-28T11:17:08.884Z,10.00
2023-03-28T11:20:08.947Z,10.00
2023-03-28T11:22:52.331Z,10.10
2023-03-28T11:25:50.011Z,10.00
2023-03-28T11:28:41.472Z,9.80
2023-03-28T11:31:15.068Z,9.70
2023-03-28T11:34:12.553Z,9.70
2023-03-28T11:36:44.843Z,9.70
2023-03-28T11:39:32.858Z,9.80
2023-03-28T11:42:06.347Z,9.90
2023-03-28T11:45:02.938Z,9.80
2023-03-28T11:47:44.376Z,9.80
2023-03-28T11:50:15.254Z,9.70
2023-03-28T11:52:50.868Z,9.60
2023-03-28T11:55:22.057Z,9.40
2023-03-28T11:58:16.915Z,9.20
2023-03-28T12:00:49.994Z,9.10
2023-03-28T12:03:44.445Z,8.90
2023-03-28T12:06:37.371Z,8.90
2023-03-28T12:09:26.534Z,9.10
2023-03-28T12:11:58.964Z,9.30
2023-03-28T12:14:57.648Z,9.30
2023-03-28T12:17:30.586Z,9.50
2023-03-28T12:19:57.777Z,9.70
2023-03-28T12:22:44.888Z,9.80
2023-03-28T12:25:26.317Z,9.80
2023-03-28T12:28:11.520Z,9.70
2023-03-28T12:31:01.431Z,9.80
2023-03-28T12:33:45.725Z,10.10
2023-03-28T12:36:38.911Z,10.40
2023-03-28T12:39:36.697Z,10.20
2023-03-28T12:42:07.719Z,10.30
2023-03-28T12:45:01.974Z,10.60
2023-03-28T12:47:37.313Z,10.50
2023-03-28T12:50:10.581Z,10.40
2023-03-28T12:52:38.646Z,10.20
2023-03-28T12:55:08.430Z,10.10
2023-03-28T12:57:41.499Z,10.00
2023-03-28T13:00:31.911Z,10.00
2023-03-28T13:03:05.543Z,10.10
2023-03-28T13:05:48.056Z,10.30
2023-03-28T13:10:47.489Z,10.60
2023-03-28T13:13:44.046Z,10.60
2023-03-28T13:16:24.209Z,10.70
2023-03-28T13:19:11.329Z,10.80
2023-03-28T13:21:43.740Z,10.70
2023-03-28T13:24:28.343Z,10.70
2023-03-28T13:27:00.923Z,10.80
2023-03-28T13:29:49.164Z,11.00
2023-03-28T13:32:24.568Z,11.00
2023-03-28T13:34:57.925Z,10.80
2023-03-28T13:37:44.990Z,10.90
2023-03-28T13:40:43.313Z,11.10
2023-03-28T13:43:23.859Z,11.10
2023-03-28T13:45:54.712Z,11.00
2023-03-28T13:48:24.857Z,11.00
2023-03-28T13:50:53.744Z,10.80
2023-03-28T13:53:20.879Z,10.70
2023-03-28T13:55:47.801Z,10.80
2023-03-28T13:58:15.712Z,10.70
2023-03-28T14:00:43.572Z,10.60
2023-03-28T14:03:15.289Z,10.50
2023-03-28T14:05:46.672Z,10.40
2023-03-28T14:10:52.419Z,10.40
2023-03-28T14:13:24.024Z,10.40
2023-03-28T14:15:53.348Z,10.50
2023-03-28T14:18:32.203Z,10.40
2023-03-28T14:21:00.530Z,10.50
2023-03-28T14:23:35.109Z,10.50
2023-03-28T14:26:04.785Z,10.30
2023-03-28T14:28:32.776Z,10.20
2023-03-28T14:31:00.271Z,10.20
2023-03-28T14:33:32.124Z,10.20
2023-03-28T14:36:04.490Z,10.20
2023-03-28T14:38:36.524Z,10.30
2023-03-28T14:41:13.808Z,10.40
2023-03-28T14:43:41.000Z,10.50
2023-03-28T14:46:10.021Z,10.60
2023-03-28T14:48:38.332Z,10.70
2023-03-28T14:51:06.079Z,10.70
2023-03-28T14:53:40.570Z,10.60
2023-03-28T14:56:11.174Z,10.70
2023-03-28T14:58:41.885Z,10.70
2023-03-28T15:01:13.287Z,10.70
2023-03-28T15:03:43.749Z,10.70
2023-03-28T15:06:17.700Z,10.80
2023-03-28T15:08:45.987Z,11.00
2023-03-28T15:11:19.648Z,10.90
2023-03-28T15:13:58.442Z,10.90
2023-03-28T15:16:26.744Z,10.90
2023-03-28T15:19:07.434Z,11.00
2023-03-28T15:21:40.271Z,11.00
2023-03-28T15:24:15.019Z,11.00
2023-03-28T15:26:51.196Z,10.90
2023-03-28T15:29:20.285Z,10.90
2023-03-28T15:31:48.051Z,10.90
2023-03-28T15:34:29.024Z,11.00
2023-03-28T15:37:01.567Z,11.00
2023-03-28T15:39:30.009Z,10.90
2023-03-28T15:42:01.694Z,10.90
2023-03-28T15:44:31.992Z,10.80
2023-03-28T15:47:06.142Z,10.60
2023-03-28T15:49:39.157Z,10.40
2023-03-28T15:52:15.429Z,10.40
2023-03-28T15:54:44.808Z,10.30
2023-03-28T15:57:14.704Z,10.30
2023-03-28T15:59:46.424Z,10.20
2023-03-28T16:02:25.339Z,10.30
2023-03-28T16:05:04.044Z,10.30
2023-03-28T16:07:46.274Z,10.30
2023-03-28T16:10:16.324Z,10.40
2023-03-28T16:12:44.040Z,10.40
2023-03-28T16:15:11.355Z,10.50
2023-03-28T16:17:38.378Z,10.50
2023-03-28T16:20:22.299Z,10.60
2023-03-28T16:22:49.217Z,10.50
2023-03-28T16:25:16.324Z,10.60
2023-03-28T16:27:43.623Z,10.50
2023-03-28T16:30:20.386Z,10.40
2023-03-28T16:32:47.420Z,10.30
2023-03-28T16:35:14.374Z,10.20
2023-03-28T16:37:41.340Z,10.00
2023-03-28T16:40:10.575Z,10.00
2023-03-28T16:42:37.483Z,9.90
2023-03-28T16:45:05.029Z,10.00
2023-03-28T16:47:31.893Z,10.00
2023-03-28T16:49:58.755Z,9.90
2023-03-28T16:52:27.300Z,9.90
2023-03-28T16:54:56.129Z,9.90
2023-03-28T16:57:23.129Z,9.90
2023-03-28T16:59:50.120Z,9.80
2023-03-28T17:02:17.440Z,9.70
2023-03-28T17:04:50.715Z,9.70
2023-03-28T17:07:18.113Z,9.70
2023-03-28T17:09:45.016Z,9.60
2023-03-28T17:12:11.843Z,9.60
2023-03-28T17:14:38.762Z,9.60
2023-03-28T17:17:05.601Z,9.50
2023-03-28T17:19:33.197Z,9.40
2023-03-28T17:22:00.702Z,9.30
2023-03-28T17:24:30.063Z,9.40
2023-03-28T17:26:56.930Z,9.30
2023-03-28T17:29:24.453Z,9.30
2023-03-28T17:31:52.837Z,9.30
2023-03-28T17:34:19.923Z,9.30
2023-03-28T17:36:46.801Z,9.20
2023-03-28T17:39:13.686Z,9.10
2023-03-28T17:41:41.881Z,9.20
2023-03-28T17:44:09.376Z,9.20
2023-03-28T17:46:37.182Z,9.20
2023-03-28T17:49:04.065Z,9.30
2023-03-28T17:51:31.052Z,9.20
2023-03-28T17:53:58.677Z,9.20
2023-03-28T17:56:25.781Z,9.10
2023-03-28T17:58:52.589Z,8.90
2023-03-28T18:01:19.849Z,8.80
2023-03-28T18:03:47.101Z,8.70
2023-03-28T18:06:14.615Z,8.50
2023-03-28T18:08:45.044Z,8.40
2023-03-28T18:11:14.816Z,8.30
2023-03-28T18:13:42.335Z,8.30
2023-03-28T18:16:11.204Z,8.20
2023-03-28T18:18:39.546Z,8.20
2023-03-28T18:21:08.282Z,8.20
2023-03-28T18:23:35.878Z,8.20
2023-03-28T18:26:03.059Z,8.10
2023-03-28T18:28:30.080Z,8.10
2023-03-28T18:31:14.072Z,8.10
2023-03-28T18:33:45.450Z,7.90
2023-03-28T18:36:14.195Z,7.70
2023-03-28T18:38:43.400Z,7.70
2023-03-28T18:41:12.940Z,7.70
2023-03-28T18:43:42.263Z,7.60
2023-03-28T18:46:10.961Z,7.60
2023-03-28T18:48:39.579Z,7.60
2023-03-28T18:51:06.621Z,7.60
2023-03-28T18:53:34.318Z,7.50
2023-03-28T18:56:01.562Z,7.40
2023-03-28T18:58:28.578Z,7.40
2023-03-28T19:01:03.745Z,7.30
2023-03-28T19:03:33.056Z,7.20
2023-03-28T19:06:02.120Z,7.20
2023-03-28T19:08:30.137Z,7.20
2023-03-28T19:10:59.600Z,7.20
2023-03-28T19:13:28.701Z,7.10
2023-03-28T19:16:04.642Z,7.00
2023-03-28T19:18:31.649Z,7.00
2023-03-28T19:20:58.668Z,6.90
2023-03-28T19:23:28.084Z,6.90
2023-03-28T19:25:55.989Z,6.70
2023-03-28T19:28:23.000Z,6.60
2023-03-28T19:30:57.828Z,6.40
2023-03-28T19:33:24.810Z,6.40
2023-03-28T19:35:51.691Z,6.30
2023-03-28T19:38:19.927Z,6.20
2023-03-28T19:40:47.447Z,6.20
2023-03-28T19:43:14.796Z,6.20
2023-03-28T19:45:41.672Z,6.20
2023-03-28T19:48:08.530Z,6.10
2023-03-28T19:50:36.873Z,6.10
2023-03-28T19:53:04.248Z,6.10
2023-03-28T19:55:31.107Z,6.10
2023-03-28T19:57:58.436Z,6.10
2023-03-28T20:00:25.752Z,6.00
2023-03-28T20:02:52.728Z,6.10
2023-03-28T20:05:19.614Z,6.00
2023-03-28T20:07:46.844Z,6.00
2023-03-28T20:10:13.657Z,6.00
2023-03-28T20:12:41.184Z,6.00
2023-03-28T20:15:09.239Z,5.90
2023-03-28T20:17:36.366Z,5.90
2023-03-28T20:20:05.102Z,5.90
2023-03-28T20:22:34.360Z,5.90
2023-03-28T20:25:01.593Z,5.90
2023-03-28T20:27:29.333Z,6.00
2023-03-28T20:29:56.189Z,6.00
2023-03-28T20:32:23.088Z,5.90
2023-03-28T20:34:49.956Z,5.90
2023-03-28T20:37:18.260Z,5.90
2023-03-28T20:39:47.287Z,6.00
2023-03-28T20:42:14.154Z,6.00
2023-03-28T20:44:41.051Z,6.00
2023-03-28T20:47:10.678Z,5.90
2023-03-28T20:49:38.541Z,6.00
2023-03-28T20:52:07.964Z,5.90
2023-03-28T20:54:35.259Z,5.90
2023-03-28T20:57:02.346Z,5.90
2023-03-28T20:59:29.572Z,5.90
2023-03-28T21:01:56.465Z,5.90
2023-03-28T21:04:23.379Z,5.90
2023-03-28T21:06:50.370Z,5.90
2023-03-28T21:09:18.252Z,5.80
2023-03-28T21:11:45.568Z,5.80
2023-03-28T21:14:14.357Z,5.80
2023-03-28T21:16:41.714Z,5.90
2023-03-28T21:19:09.425Z,5.80
2023-03-28T21:21:36.746Z,5.90
2023-03-28T21:24:05.087Z,5.90
2023-03-28T21:26:32.553Z,5.90
2023-03-28T21:28:59.647Z,5.90
2023-03-28T21:31:28.724Z,5.80
2023-03-28T21:33:57.493Z,5.80
2023-03-28T21:36:26.797Z,5.80
2023-03-28T21:38:54.128Z,5.90
2023-03-28T21:41:22.542Z,5.90
2023-03-28T21:43:49.647Z,5.90
2023-03-28T21:46:18.768Z,5.90
2023-03-28T21:48:48.272Z,5.90
2023-03-28T21:51:16.104Z,5.90
2023-03-28T21:53:43.088Z,6.00
2023-03-28T21:56:11.847Z,5.90
2023-03-28T21:58:38.778Z,6.00
2023-03-28T22:01:06.329Z,5.90
2023-03-28T22:03:37.399Z,6.00
2023-03-28T22:06:05.009Z,5.90
2023-03-28T22:08:32.346Z,5.90
2023-03-28T22:11:03.827Z,5.90
2023-03-28T22:13:31.039Z,6.00
2023-03-28T22:16:00.213Z,6.00
2023-03-28T22:18:27.843Z,6.00
2023-03-28T22:20:54.953Z,6.00
2023-03-28T22:23:23.467Z,6.00
2023-03-28T22:25:51.104Z,6.00
2023-03-28T22:28:18.943Z,6.00
2023-03-28T22:30:46.181Z,6.00
2023-03-28T22:33:13.617Z,6.00
2023-03-28T22:35:41.266Z,6.10
2023-03-28T22:38:08.996Z,6.00
2023-03-28T22:40:35.895Z,6.10
2023-03-28T22:43:03.409Z,6.10
2023-03-28T22:45:30.351Z,6.10
2023-03-28T22:48:03.342Z,6.10
2023-03-28T22:50:33.758Z,6.10
2023-03-28T22:53:02.381Z,6.20
2023-03-28T22:55:29.367Z,6.20
2023-03-28T22:57:56.268Z,6.20
2023-03-28T23:00:23.469Z,6.20
2023-03-28T23:02:52.232Z,6.20
2023-03-28T23:05:20.798Z,6.20
2023-03-28T23:07:47.744Z,6.20
2023-03-28T23:10:19.250Z,6.20
2023-03-28T23:12:47.281Z,6.20
2023-03-28T23:15:14.849Z,6.10
2023-03-28T23:17:43.012Z,6.20
2023-03-28T23:20:15.074Z,6.20
2023-03-28T23:22:44.463Z,6.20
2023-03-28T23:25:13.002Z,6.20
2023-03-28T23:27:40.232Z,6.30
2023-03-28T23:30:08.829Z,6.20
2023-03-28T23:32:36.015Z,6.30
2023-03-28T23:35:03.563Z,6.20
2023-03-28T23:37:30.453Z,6.20
2023-03-28T23:39:57.700Z,6.10
2023-03-28T23:42:25.182Z,6.10
2023-03-28T23:44:52.760Z,6.10
2023-03-28T23:47:23.362Z,6.10
2023-03-28T23:49:50.441Z,6.10
2023-03-28T23:52:17.412Z,6.00
2023-03-28T23:54:44.369Z,6.10
2023-03-28T23:57:11.583Z,6.10
2023-03-28T23:59:38.790Z,6.10
